sensor_id;sensor_type;location;lat;lon;timestamp;pressure;altitude;pressure_sealevel;temperature;humidity
6090;BME280;3073;42.660;23.316;2023-04-01T00:01:12;93663.22;;;11.62;100.00
6090;BME280;3073;42.660;23.316;2023-04-01T00:03:40;93663.72;;;11.64;100.00
6090;BME280;3073;42.660;23.316;2023-04-01T00:06:08;93668.31;;;11.72;100.00
6090;BME280;3073;42.660;23.316;2023-04-01T00:08:37;93666.25;;;11.74;100.00
6090;BME280;3073;42.660;23.316;2023-04-01T00:11:04;93669.84;;;11.73;100.00
6090;BME280;3073;42.660;23.316;2023-04-01T00:13:31;93665.28;;;11.70;100.00
6090;BME280;3073;42.660;23.316;2023-04-01T00:15:58;93670.34;;;11.75;100.00
6090;BME280;3073;42.660;23.316;2023-04-01T00:18:25;93668.56;;;11.66;100.00
6090;BME280;3073;42.660;23.316;2023-04-01T00:20:52;93676.00;;;11.67;100.00
6090;BME280;3073;42.660;23.316;2023-04-01T00:23:19;93682.38;;;11.65;100.00
6090;BME280;3073;42.660;23.316;2023-04-01T00:25:48;93686.25;;;11.52;100.00
6090;BME280;3073;42.660;23.316;2023-04-01T00:28:15;93688.84;;;11.47;100.00
6090;BME280;3073;42.660;23.316;2023-04-01T00:30:42;93674.31;;;11.32;100.00
6090;BME280;3073;42.660;23.316;2023-04-01T00:33:09;93677.13;;;11.26;100.00
6090;BME280;3073;42.660;23.316;2023-04-01T00:35:36;93686.38;;;11.07;100.00
6090;BME280;3073;42.660;23.316;2023-04-01T00:38:06;93669.56;;;11.01;100.00
6090;BME280;3073;42.660;23.316;2023-04-01T00:40:36;93671.06;;;11.07;100.00
6090;BME280;3073;42.660;23.316;2023-04-01T00:43:10;93659.59;;;10.94;100.00
6090;BME280;3073;42.660;23.316;2023-04-01T00:45:39;93656.28;;;10.89;100.00
6090;BME280;3073;42.660;23.316;2023-04-01T00:48:10;93652.22;;;10.72;100.00
6090;BME280;3073;42.660;23.316;2023-04-01T00:50:42;93646.63;;;10.60;100.00
6090;BME280;3073;42.660;23.316;2023-04-01T00:53:10;93649.19;;;10.55;100.00
6090;BME280;3073;42.660;23.316;2023-04-01T00:55:41;93641.28;;;10.52;100.00
6090;BME280;3073;42.660;23.316;2023-04-01T00:58:14;93640.00;;;10.59;100.00
6090;BME280;3073;42.660;23.316;2023-04-01T01:00:44;93633.38;;;10.53;100.00
6090;BME280;3073;42.660;23.316;2023-04-01T01:03:11;93629.81;;;10.59;100.00
6090;BME280;3073;42.660;23.316;2023-04-01T01:06:07;93630.31;;;10.46;100.00
6090;BME280;3073;42.660;23.316;2023-04-01T01:08:49;93617.53;;;10.61;100.00
6090;BME280;3073;42.660;23.316;2023-04-01T01:11:23;93618.06;;;10.63;100.00
6090;BME280;3073;42.660;23.316;2023-04-01T01:13:58;93617.06;;;10.49;100.00
6090;BME280;3073;42.660;23.316;2023-04-01T01:16:30;93610.69;;;10.57;100.00
6090;BME280;3073;42.660;23.316;2023-04-01T01:19:08;93594.88;;;10.60;100.00
6090;BME280;3073;42.660;23.316;2023-04-01T01:21:59;93603.50;;;10.69;100.00
6090;BME280;3073;42.660;23.316;2023-04-01T01:24:53;93597.09;;;10.81;100.00
6090;BME280;3073;42.660;23.316;2023-04-01T01:27:22;93592.50;;;10.89;100.00
6090;BME280;3073;42.660;23.316;2023-04-01T01:30:13;93592.03;;;10.71;100.00
6090;BME280;3073;42.660;23.316;2023-04-01T01:32:55;93576.69;;;10.81;100.00
6090;BME280;3073;42.660;23.316;2023-04-01T01:35:30;93572.28;;;11.02;100.00
6090;BME280;3073;42.660;23.316;2023-04-01T01:38:01;93582.22;;;11.14;100.00
6090;BME280;3073;42.660;23.316;2023-04-01T01:40:31;93578.13;;;11.08;100.00
6090;BME280;3073;42.660;23.316;2023-04-01T01:43:03;93577.59;;;11.11;100.00
6090;BME280;3073;42.660;23.316;2023-04-01T01:45:33;93589.66;;;11.00;100.00
6090;BME280;3073;42.660;23.316;2023-04-01T01:48:03;93580.69;;;11.08;100.00
6090;BME280;3073;42.660;23.316;2023-04-01T01:50:33;93583.78;;;11.00;100.00
6090;BME280;3073;42.660;23.316;2023-04-01T01:53:04;93580.69;;;11.08;100.00
6090;BME280;3073;42.660;23.316;2023-04-01T01:55:33;93566.63;;;11.20;100.00
6090;BME280;3073;42.660;23.316;2023-04-01T01:58:05;93565.81;;;11.25;100.00
6090;BME280;3073;42.660;23.316;2023-04-01T02:00:35;93559.94;;;11.24;100.00
6090;BME280;3073;42.660;23.316;2023-04-01T02:03:03;93558.72;;;11.17;100.00
6090;BME280;3073;42.660;23.316;2023-04-01T02:05:33;93556.66;;;11.19;100.00
6090;BME280;3073;42.660;23.316;2023-04-01T02:08:03;93552.50;;;11.33;100.00
6090;BME280;3073;42.660;23.316;2023-04-01T02:10:36;93554.00;;;11.44;100.00
6090;BME280;3073;42.660;23.316;2023-04-01T02:13:09;93550.38;;;11.50;100.00
6090;BME280;3073;42.660;23.316;2023-04-01T02:15:43;93546.78;;;11.51;100.00
6090;BME280;3073;42.660;23.316;2023-04-01T02:18:12;93548.44;;;11.32;100.00
6090;BME280;3073;42.660;23.316;2023-04-01T02:20:41;93547.41;;;11.33;100.00
6090;BME280;3073;42.660;23.316;2023-04-01T02:23:10;93535.00;;;11.55;100.00
6090;BME280;3073;42.660;23.316;2023-04-01T02:25:37;93529.59;;;11.62;100.00
6090;BME280;3073;42.660;23.316;2023-04-01T02:28:06;93540.06;;;11.65;97.55
6090;BME280;3073;42.660;23.316;2023-04-01T02:30:36;93544.28;;;11.41;100.00
6090;BME280;3073;42.660;23.316;2023-04-01T02:33:03;93548.84;;;11.49;100.00
6090;BME280;3073;42.660;23.316;2023-04-01T02:35:34;93553.47;;;11.47;100.00
6090;BME280;3073;42.660;23.316;2023-04-01T02:38:03;93555.97;;;11.57;100.00
6090;BME280;3073;42.660;23.316;2023-04-01T02:40:45;93548.78;;;11.59;100.00
6090;BME280;3073;42.660;23.316;2023-04-01T02:43:12;93552.16;;;11.50;100.00
6090;BME280;3073;42.660;23.316;2023-04-01T02:45:40;93559.50;;;11.17;100.00
6090;BME280;3073;42.660;23.316;2023-04-01T02:48:06;93562.25;;;11.26;100.00
6090;BME280;3073;42.660;23.316;2023-04-01T02:50:33;93543.38;;;11.22;100.00
6090;BME280;3073;42.660;23.316;2023-04-01T02:53:00;93565.03;;;11.24;100.00
6090;BME280;3073;42.660;23.316;2023-04-01T02:55:30;93567.91;;;11.13;100.00
6090;BME280;3073;42.660;23.316;2023-04-01T02:57:57;93572.00;;;11.14;100.00
6090;BME280;3073;42.660;23.316;2023-04-01T03:00:24;93580.66;;;11.18;100.00
6090;BME280;3073;42.660;23.316;2023-04-01T03:02:51;93575.34;;;11.09;100.00
6090;BME280;3073;42.660;23.316;2023-04-01T03:05:18;93581.44;;;11.13;100.00
6090;BME280;3073;42.660;23.316;2023-04-01T03:07:45;93587.81;;;11.16;100.00
6090;BME280;3073;42.660;23.316;2023-04-01T03:10:12;93584.78;;;11.09;100.00
6090;BME280;3073;42.660;23.316;2023-04-01T03:12:42;93584.50;;;11.15;100.00
6090;BME280;3073;42.660;23.316;2023-04-01T03:15:10;93588.03;;;11.24;100.00
6090;BME280;3073;42.660;23.316;2023-04-01T03:17:37;93592.44;;;11.09;100.00
6090;BME280;3073;42.660;23.316;2023-04-01T03:20:05;93574.03;;;11.17;100.00
6090;BME280;3073;42.660;23.316;2023-04-01T03:22:33;93592.44;;;11.14;100.00
6090;BME280;3073;42.660;23.316;2023-04-01T03:25:00;93576.34;;;11.08;100.00
6090;BME280;3073;42.660;23.316;2023-04-01T03:27:27;93595.06;;;10.78;100.00
6090;BME280;3073;42.660;23.316;2023-04-01T03:29:56;93601.97;;;10.68;100.00
6090;BME280;3073;42.660;23.316;2023-04-01T03:32:22;93597.16;;;10.21;100.00
6090;BME280;3073;42.660;23.316;2023-04-01T03:34:49;93595.66;;;10.30;100.00
6090;BME280;3073;42.660;23.316;2023-04-01T03:37:16;93577.28;;;10.28;100.00
6090;BME280;3073;42.660;23.316;2023-04-01T03:39:43;93578.31;;;10.27;100.00
6090;BME280;3073;42.660;23.316;2023-04-01T03:42:10;93568.63;;;10.19;100.00
6090;BME280;3073;42.660;23.316;2023-04-01T03:44:37;93564.31;;;10.19;100.00
6090;BME280;3073;42.660;23.316;2023-04-01T03:47:06;93552.34;;;10.20;100.00
6090;BME280;3073;42.660;23.316;2023-04-01T03:49:34;93539.06;;;10.23;100.00
6090;BME280;3073;42.660;23.316;2023-04-01T03:52:01;93520.22;;;10.24;100.00
6090;BME280;3073;42.660;23.316;2023-04-01T03:54:28;93522.00;;;10.18;100.00
6090;BME280;3073;42.660;23.316;2023-04-01T03:56:55;93515.88;;;10.19;100.00
6090;BME280;3073;42.660;23.316;2023-04-01T03:59:23;93494.97;;;10.22;100.00
6090;BME280;3073;42.660;23.316;2023-04-01T04:01:50;93496.75;;;10.27;100.00
6090;BME280;3073;42.660;23.316;2023-04-01T04:04:18;93492.41;;;10.22;100.00
6090;BME280;3073;42.660;23.316;2023-04-01T04:06:45;93477.59;;;10.34;100.00
6090;BME280;3073;42.660;23.316;2023-04-01T04:09:12;93467.66;;;10.38;100.00
6090;BME280;3073;42.660;23.316;2023-04-01T04:11:38;93467.88;;;10.52;100.00
6090;BME280;3073;42.660;23.316;2023-04-01T04:14:06;93462.44;;;10.68;100.00
6090;BME280;3073;42.660;23.316;2023-04-01T04:16:35;93454.31;;;10.66;100.00
6090;BME280;3073;42.660;23.316;2023-04-01T04:19:03;93455.81;;;10.72;100.00
6090;BME280;3073;42.660;23.316;2023-04-01T04:21:31;93453.75;;;10.74;100.00
6090;BME280;3073;42.660;23.316;2023-04-01T04:23:58;93450.66;;;10.82;100.00
6090;BME280;3073;42.660;23.316;2023-04-01T04:26:26;93452.72;;;10.80;100.00
6090;BME280;3073;42.660;23.316;2023-04-01T04:28:54;93442.53;;;10.75;100.00
6090;BME280;3073;42.660;23.316;2023-04-01T04:31:22;93441.47;;;10.81;100.00
6090;BME280;3073;42.660;23.316;2023-04-01T04:33:49;93437.19;;;10.72;100.00
6090;BME280;3073;42.660;23.316;2023-04-01T04:36:16;93433.34;;;10.74;100.00
6090;BME280;3073;42.660;23.316;2023-04-01T04:38:48;93436.13;;;10.78;100.00
6090;BME280;3073;42.660;23.316;2023-04-01T04:41:16;93436.13;;;10.83;100.00
6090;BME280;3073;42.660;23.316;2023-04-01T04:43:49;93434.38;;;10.73;100.00
6090;BME280;3073;42.660;23.316;2023-04-01T04:46:16;93427.75;;;10.72;100.00
6090;BME280;3073;42.660;23.316;2023-04-01T04:48:43;93408.09;;;10.73;100.00
6090;BME280;3073;42.660;23.316;2023-04-01T04:51:13;93413.41;;;10.81;100.00
6090;BME280;3073;42.660;23.316;2023-04-01T04:53:40;93407.53;;;10.86;100.00
6090;BME280;3073;42.660;23.316;2023-04-01T04:56:09;93423.47;;;10.63;100.00
6090;BME280;3073;42.660;23.316;2023-04-01T04:58:36;93420.72;;;10.49;100.00
6090;BME280;3073;42.660;23.316;2023-04-01T05:01:08;93416.56;;;10.63;100.00
6090;BME280;3073;42.660;23.316;2023-04-01T05:03:34;93400.22;;;10.69;100.00
6090;BME280;3073;42.660;23.316;2023-04-01T05:06:01;93408.31;;;10.81;100.00
6090;BME280;3073;42.660;23.316;2023-04-01T05:08:28;93410.66;;;10.73;100.00
6090;BME280;3073;42.660;23.316;2023-04-01T05:10:55;93409.31;;;10.85;100.00
6090;BME280;3073;42.660;23.316;2023-04-01T05:13:23;93410.56;;;10.93;100.00
6090;BME280;3073;42.660;23.316;2023-04-01T05:15:50;93393.47;;;10.89;100.00
6090;BME280;3073;42.660;23.316;2023-04-01T05:18:17;93386.34;;;10.85;100.00
6090;BME280;3073;42.660;23.316;2023-04-01T05:20:47;93389.44;;;10.82;100.00
6090;BME280;3073;42.660;23.316;2023-04-01T05:23:14;93378.69;;;10.85;100.00
6090;BME280;3073;42.660;23.316;2023-04-01T05:25:42;93366.94;;;10.90;100.00
6090;BME280;3073;42.660;23.316;2023-04-01T05:28:10;93371.75;;;10.91;100.00
6090;BME280;3073;42.660;23.316;2023-04-01T05:30:40;93378.94;;;10.89;100.00
6090;BME280;3073;42.660;23.316;2023-04-01T05:33:08;93374.91;;;11.17;100.00
6090;BME280;3073;42.660;23.316;2023-04-01T05:35:35;93375.41;;;11.81;100.00
6090;BME280;3073;42.660;23.316;2023-04-01T05:38:02;93367.63;;;12.58;100.00
6090;BME280;3073;42.660;23.316;2023-04-01T05:40:30;93366.25;;;13.40;100.00
6090;BME280;3073;42.660;23.316;2023-04-01T05:42:59;93356.84;;;14.09;94.80
6090;BME280;3073;42.660;23.316;2023-04-01T05:45:26;93369.28;;;13.88;91.77
6090;BME280;3073;42.660;23.316;2023-04-01T05:47:54;93369.31;;;14.29;85.59
6090;BME280;3073;42.660;23.316;2023-04-01T05:50:21;93380.31;;;14.70;80.95
6090;BME280;3073;42.660;23.316;2023-04-01T05:53:07;93370.84;;;15.51;76.77
6090;BME280;3073;42.660;23.316;2023-04-01T05:55:34;93358.38;;;15.67;72.07
6090;BME280;3073;42.660;23.316;2023-04-01T05:58:01;93344.94;;;16.01;68.82
6090;BME280;3073;42.660;23.316;2023-04-01T06:00:30;93349.31;;;15.69;69.57
6090;BME280;3073;42.660;23.316;2023-04-01T06:03:03;93357.63;;;16.06;67.42
6090;BME280;3073;42.660;23.316;2023-04-01T06:05:39;93346.91;;;16.12;65.35
6090;BME280;3073;42.660;23.316;2023-04-01T06:08:10;93354.38;;;16.70;63.39
6090;BME280;3073;42.660;23.316;2023-04-01T06:10:50;93351.78;;;17.39;61.37
6090;BME280;3073;42.660;23.316;2023-04-01T06:13:28;93347.41;;;17.31;60.28
6090;BME280;3073;42.660;23.316;2023-04-01T06:16:06;93337.25;;;16.74;60.09
6090;BME280;3073;42.660;23.316;2023-04-01T06:19:05;93345.69;;;16.01;61.71
6090;BME280;3073;42.660;23.316;2023-04-01T06:22:08;93352.22;;;15.76;62.03
6090;BME280;3073;42.660;23.316;2023-04-01T06:27:49;93360.41;;;15.12;64.58
6090;BME280;3073;42.660;23.316;2023-04-01T06:30:30;93357.84;;;15.12;64.47
6090;BME280;3073;42.660;23.316;2023-04-01T06:33:24;93342.56;;;15.07;63.33
6090;BME280;3073;42.660;23.316;2023-04-01T06:36:23;93340.56;;;15.48;64.82
6090;BME280;3073;42.660;23.316;2023-04-01T06:39:04;93332.75;;;15.53;64.35
6090;BME280;3073;42.660;23.316;2023-04-01T06:41:52;93322.63;;;15.57;64.76
6090;BME280;3073;42.660;23.316;2023-04-01T06:44:24;93308.50;;;15.01;65.05
6090;BME280;3073;42.660;23.316;2023-04-01T06:46:58;93307.41;;;15.16;64.57
6090;BME280;3073;42.660;23.316;2023-04-01T06:49:35;93322.22;;;14.97;65.79
6090;BME280;3073;42.660;23.316;2023-04-01T06:52:19;93328.53;;;14.90;65.64
6090;BME280;3073;42.660;23.316;2023-04-01T06:54:55;93320.59;;;14.65;67.27
6090;BME280;3073;42.660;23.316;2023-04-01T06:57:31;93302.22;;;14.22;71.05
6090;BME280;3073;42.660;23.316;2023-04-01T07:00:01;93294.34;;;14.18;72.75
6090;BME280;3073;42.660;23.316;2023-04-01T07:02:32;93297.09;;;13.94;75.47
6090;BME280;3073;42.660;23.316;2023-04-01T07:05:04;93306.44;;;14.04;78.37
6090;BME280;3073;42.660;23.316;2023-04-01T07:07:36;93307.66;;;14.20;77.53
6090;BME280;3073;42.660;23.316;2023-04-01T07:10:10;93319.16;;;14.36;76.62
6090;BME280;3073;42.660;23.316;2023-04-01T07:12:43;93307.47;;;14.44;76.72
6090;BME280;3073;42.660;23.316;2023-04-01T07:15:18;93300.09;;;14.51;76.84
6090;BME280;3073;42.660;23.316;2023-04-01T07:17:47;93293.38;;;14.28;77.40
6090;BME280;3073;42.660;23.316;2023-04-01T07:20:20;93272.34;;;14.53;78.54
6090;BME280;3073;42.660;23.316;2023-04-01T07:22:52;93298.09;;;14.62;78.70
6090;BME280;3073;42.660;23.316;2023-04-01T07:25:24;93313.75;;;14.74;77.58
6090;BME280;3073;42.660;23.316;2023-04-01T07:27:53;93323.13;;;14.15;80.49
6090;BME280;3073;42.660;23.316;2023-04-01T07:30:24;93320.75;;;14.19;80.88
6090;BME280;3073;42.660;23.316;2023-04-01T07:32:58;93317.81;;;13.84;83.05
6090;BME280;3073;42.660;23.316;2023-04-01T07:35:30;93311.75;;;13.80;85.13
6090;BME280;3073;42.660;23.316;2023-04-01T07:38:16;93315.34;;;13.93;85.07
6090;BME280;3073;42.660;23.316;2023-04-01T07:40:56;93317.81;;;14.25;84.09
6090;BME280;3073;42.660;23.316;2023-04-01T07:43:38;93306.59;;;14.35;85.49
6090;BME280;3073;42.660;23.316;2023-04-01T07:46:18;93301.16;;;14.50;83.42
6090;BME280;3073;42.660;23.316;2023-04-01T07:48:53;93286.94;;;14.44;84.85
6090;BME280;3073;42.660;23.316;2023-04-01T07:51:27;93292.53;;;14.32;86.40
6090;BME280;3073;42.660;23.316;2023-04-01T07:54:02;93291.25;;;13.94;89.19
6090;BME280;3073;42.660;23.316;2023-04-01T07:56:37;93302.25;;;13.81;91.82
6090;BME280;3073;42.660;23.316;2023-04-01T07:59:13;93295.59;;;13.53;94.85
6090;BME280;3073;42.660;23.316;2023-04-01T08:01:47;93287.44;;;13.51;97.17
6090;BME280;3073;42.660;23.316;2023-04-01T08:04:36;93289.13;;;13.69;96.24
6090;BME280;3073;42.660;23.316;2023-04-01T08:07:11;93271.09;;;14.01;95.07
6090;BME280;3073;42.660;23.316;2023-04-01T08:09:48;93270.00;;;14.29;95.11
6090;BME280;3073;42.660;23.316;2023-04-01T08:12:29;93266.97;;;14.77;91.15
6090;BME280;3073;42.660;23.316;2023-04-01T08:15:11;93271.56;;;14.88;87.90
6090;BME280;3073;42.660;23.316;2023-04-01T08:17:48;93275.47;;;14.86;85.13
6090;BME280;3073;42.660;23.316;2023-04-01T08:20:27;93256.56;;;15.04;84.98
6090;BME280;3073;42.660;23.316;2023-04-01T08:22:59;93246.63;;;15.42;83.28
6090;BME280;3073;42.660;23.316;2023-04-01T08:25:29;93242.00;;;15.53;80.90
6090;BME280;3073;42.660;23.316;2023-04-01T08:27:59;93241.38;;;15.47;79.67
6090;BME280;3073;42.660;23.316;2023-04-01T08:30:37;93229.59;;;16.03;78.60
6090;BME280;3073;42.660;23.316;2023-04-01T08:33:09;93212.09;;;16.73;74.02
6090;BME280;3073;42.660;23.316;2023-04-01T08:35:43;93209.59;;;18.16;68.62
6090;BME280;3073;42.660;23.316;2023-04-01T08:38:14;93196.53;;;19.52;62.78
6090;BME280;3073;42.660;23.316;2023-04-01T08:40:58;93189.69;;;20.33;58.25
6090;BME280;3073;42.660;23.316;2023-04-01T08:43:51;93199.06;;;21.52;53.42
6090;BME280;3073;42.660;23.316;2023-04-01T08:46:53;93190.09;;;21.65;52.76
6090;BME280;3073;42.660;23.316;2023-04-01T08:49:41;93192.22;;;23.02;49.34
6090;BME280;3073;42.660;23.316;2023-04-01T08:55:22;93173.47;;;23.39;46.90
6090;BME280;3073;42.660;23.316;2023-04-01T08:58:02;93184.66;;;24.11;44.87
6090;BME280;3073;42.660;23.316;2023-04-01T09:00:48;93180.00;;;24.53;43.04
6090;BME280;3073;42.660;23.316;2023-04-01T09:03:46;93179.84;;;24.13;43.21
6090;BME280;3073;42.660;23.316;2023-04-01T09:06:40;93189.56;;;23.41;43.23
6090;BME280;3073;42.660;23.316;2023-04-01T09:09:35;93175.34;;;22.54;44.43
6090;BME280;3073;42.660;23.316;2023-04-01T09:12:28;93186.38;;;22.13;45.34
6090;BME280;3073;42.660;23.316;2023-04-01T09:15:15;93187.16;;;21.20;45.79
6090;BME280;3073;42.660;23.316;2023-04-01T09:18:20;93183.91;;;21.54;45.39
6090;BME280;3073;42.660;23.316;2023-04-01T09:24:22;93160.84;;;21.84;45.12
6090;BME280;3073;42.660;23.316;2023-04-01T09:27:05;93158.53;;;21.63;45.06
6090;BME280;3073;42.660;23.316;2023-04-01T09:30:00;93146.75;;;21.50;45.07
6090;BME280;3073;42.660;23.316;2023-04-01T09:32:54;93146.13;;;20.94;45.77
6090;BME280;3073;42.660;23.316;2023-04-01T09:35:24;93136.72;;;21.17;45.40
6090;BME280;3073;42.660;23.316;2023-04-01T09:38:06;93142.19;;;22.13;43.97
6090;BME280;3073;42.660;23.316;2023-04-01T09:40:49;93136.94;;;22.29;42.95
6090;BME280;3073;42.660;23.316;2023-04-01T09:43:26;93130.84;;;22.59;41.36
6090;BME280;3073;42.660;23.316;2023-04-01T09:46:08;93122.34;;;22.82;41.22
6090;BME280;3073;42.660;23.316;2023-04-01T09:51:52;93093.03;;;23.30;41.07
6090;BME280;3073;42.660;23.316;2023-04-01T09:54:30;93083.81;;;23.36;41.63
6090;BME280;3073;42.660;23.316;2023-04-01T09:57:36;93085.38;;;23.93;39.34
6090;BME280;3073;42.660;23.316;2023-04-01T10:06:39;93087.63;;;22.93;40.78
6090;BME280;3073;42.660;23.316;2023-04-01T10:13:08;93091.13;;;24.73;38.44
6090;BME280;3073;42.660;23.316;2023-04-01T10:16:26;93072.88;;;23.76;38.76
6090;BME280;3073;42.660;23.316;2023-04-01T10:19:16;93070.88;;;24.26;38.79
6090;BME280;3073;42.660;23.316;2023-04-01T10:22:09;93062.94;;;24.85;37.42
6090;BME280;3073;42.660;23.316;2023-04-01T10:25:05;93069.78;;;25.48;37.25
6090;BME280;3073;42.660;23.316;2023-04-01T10:37:03;93039.53;;;24.19;38.69
6090;BME280;3073;42.660;23.316;2023-04-01T10:40:13;93036.97;;;23.36;37.43
6090;BME280;3073;42.660;23.316;2023-04-01T10:53:10;93000.03;;;19.84;40.81
6090;BME280;3073;42.660;23.316;2023-04-01T10:56:14;93007.50;;;19.73;41.85
6090;BME280;3073;42.660;23.316;2023-04-01T11:11:33;93000.59;;;20.64;43.48
6090;BME280;3073;42.660;23.316;2023-04-01T11:17:34;93008.59;;;20.28;42.18
6090;BME280;3073;42.660;23.316;2023-04-01T11:20:22;93010.19;;;20.04;42.35
6090;BME280;3073;42.660;23.316;2023-04-01T11:23:09;93014.91;;;19.87;43.98
6090;BME280;3073;42.660;23.316;2023-04-01T11:25:50;93036.03;;;20.17;44.58
6090;BME280;3073;42.660;23.316;2023-04-01T11:28:39;93052.50;;;19.08;43.91
6090;BME280;3073;42.660;23.316;2023-04-01T11:31:31;93090.97;;;17.78;46.59
6090;BME280;3073;42.660;23.316;2023-04-01T11:34:07;93050.28;;;17.63;53.44
6090;BME280;3073;42.660;23.316;2023-04-01T11:36:48;93070.31;;;17.08;56.30
6090;BME280;3073;42.660;23.316;2023-04-01T11:39:24;93082.13;;;16.45;56.33
6090;BME280;3073;42.660;23.316;2023-04-01T11:42:01;93116.25;;;16.16;60.37
6090;BME280;3073;42.660;23.316;2023-04-01T11:44:38;93149.97;;;15.24;83.34
6090;BME280;3073;42.660;23.316;2023-04-01T11:47:44;93167.78;;;14.23;100.00
6090;BME280;3073;42.660;23.316;2023-04-01T11:50:22;93214.53;;;13.57;100.00
6090;BME280;3073;42.660;23.316;2023-04-01T11:53:18;93250.97;;;11.82;100.00
6090;BME280;3073;42.660;23.316;2023-04-01T11:55:58;93247.00;;;11.47;100.00
6090;BME280;3073;42.660;23.316;2023-04-01T11:58:41;93257.38;;;11.03;100.00
6090;BME280;3073;42.660;23.316;2023-04-01T12:01:21;93260.59;;;11.14;100.00
6090;BME280;3073;42.660;23.316;2023-04-01T12:07:00;93238.13;;;11.11;100.00
6090;BME280;3073;42.660;23.316;2023-04-01T12:09:36;93227.78;;;11.26;100.00
6090;BME280;3073;42.660;23.316;2023-04-01T12:12:15;93238.28;;;11.48;100.00
6090;BME280;3073;42.660;23.316;2023-04-01T12:14:54;93232.06;;;11.54;100.00
6090;BME280;3073;42.660;23.316;2023-04-01T12:17:34;93229.66;;;12.10;100.00
6090;BME280;3073;42.660;23.316;2023-04-01T12:20:21;93232.69;;;12.50;100.00
6090;BME280;3073;42.660;23.316;2023-04-01T12:22:55;93224.50;;;12.99;100.00
6090;BME280;3073;42.660;23.316;2023-04-01T12:25:44;93228.16;;;13.25;100.00
6090;BME280;3073;42.660;23.316;2023-04-01T12:28:21;93237.78;;;13.33;100.00
6090;BME280;3073;42.660;23.316;2023-04-01T12:31:01;93237.97;;;13.36;100.00
6090;BME280;3073;42.660;23.316;2023-04-01T12:33:48;93220.34;;;13.03;100.00
6090;BME280;3073;42.660;23.316;2023-04-01T12:36:30;93239.78;;;13.04;100.00
6090;BME280;3073;42.660;23.316;2023-04-01T12:39:28;93247.78;;;12.83;100.00
6090;BME280;3073;42.660;23.316;2023-04-01T12:42:05;93259.34;;;12.62;100.00
6090;BME280;3073;42.660;23.316;2023-04-01T12:44:49;93259.59;;;12.47;100.00
6090;BME280;3073;42.660;23.316;2023-04-01T12:50:50;93244.31;;;12.61;100.00
6090;BME280;3073;42.660;23.316;2023-04-01T12:53:37;93248.16;;;12.58;100.00
6090;BME280;3073;42.660;23.316;2023-04-01T12:56:13;93241.41;;;12.49;100.00
6090;BME280;3073;42.660;23.316;2023-04-01T12:59:09;93226.56;;;12.64;100.00
6090;BME280;3073;42.660;23.316;2023-04-01T13:02:00;93235.41;;;12.72;100.00
6090;BME280;3073;42.660;23.316;2023-04-01T13:07:52;93208.22;;;12.76;100.00
6090;BME280;3073;42.660;23.316;2023-04-01T13:10:35;93224.00;;;12.64;100.00
6090;BME280;3073;42.660;23.316;2023-04-01T13:13:26;93185.72;;;12.27;100.00
6090;BME280;3073;42.660;23.316;2023-04-01T13:16:04;93163.41;;;13.11;100.00
6090;BME280;3073;42.660;23.316;2023-04-01T13:18:39;93158.25;;;14.01;100.00
6090;BME280;3073;42.660;23.316;2023-04-01T13:21:15;93162.06;;;14.92;100.00
6090;BME280;3073;42.660;23.316;2023-04-01T13:23:56;93167.34;;;15.58;100.00
6090;BME280;3073;42.660;23.316;2023-04-01T13:26:31;93177.38;;;16.02;100.00
6090;BME280;3073;42.660;23.316;2023-04-01T13:29:07;93179.31;;;15.88;100.00
6090;BME280;3073;42.660;23.316;2023-04-01T13:31:52;93166.06;;;16.37;100.00
6090;BME280;3073;42.660;23.316;2023-04-01T13:34:32;93168.59;;;16.12;100.00
6090;BME280;3073;42.660;23.316;2023-04-01T13:37:14;93152.25;;;15.99;100.00
6090;BME280;3073;42.660;23.316;2023-04-01T13:39:56;93145.91;;;16.39;100.00
6090;BME280;3073;42.660;23.316;2023-04-01T13:42:31;93142.72;;;15.82;100.00
6090;BME280;3073;42.660;23.316;2023-04-01T13:45:02;93133.44;;;15.56;100.00
6090;BME280;3073;42.660;23.316;2023-04-01T13:56:45;93123.47;;;18.21;100.00
6090;BME280;3073;42.660;23.316;2023-04-01T13:59:41;93125.06;;;18.79;100.00
6090;BME280;3073;42.660;23.316;2023-04-01T14:02:29;93108.53;;;19.04;100.00
6090;BME280;3073;42.660;23.316;2023-04-01T14:05:12;93112.16;;;17.34;77.15
6090;BME280;3073;42.660;23.316;2023-04-01T14:07:57;93083.56;;;17.56;90.37
6090;BME280;3073;42.660;23.316;2023-04-01T14:10:33;93094.81;;;17.72;75.06
6090;BME280;3073;42.660;23.316;2023-04-01T14:13:09;93100.63;;;16.47;69.79
6090;BME280;3073;42.660;23.316;2023-04-01T14:15:57;93094.44;;;16.31;83.82
6090;BME280;3073;42.660;23.316;2023-04-01T14:18:40;93060.72;;;15.72;74.14
6090;BME280;3073;42.660;23.316;2023-04-01T14:21:23;93079.13;;;15.40;74.49
6090;BME280;3073;42.660;23.316;2023-04-01T14:24:21;93070.25;;;15.98;74.40
6090;BME280;3073;42.660;23.316;2023-04-01T14:27:09;93059.50;;;15.61;68.44
6090;BME280;3073;42.660;23.316;2023-04-01T14:29:47;93058.28;;;15.50;68.19
6090;BME280;3073;42.660;23.316;2023-04-01T14:32:31;93050.41;;;15.55;68.81
6090;BME280;3073;42.660;23.316;2023-04-01T14:35:17;93056.03;;;15.57;68.90
6090;BME280;3073;42.660;23.316;2023-04-01T14:38:04;93043.69;;;16.31;64.57
6090;BME280;3073;42.660;23.316;2023-04-01T14:40:48;93034.00;;;16.37;61.31
6090;BME280;3073;42.660;23.316;2023-04-01T14:43:38;93066.00;;;16.82;60.18
6090;BME280;3073;42.660;23.316;2023-04-01T14:46:35;93074.34;;;16.79;72.45
6090;BME280;3073;42.660;23.316;2023-04-01T14:49:17;93075.22;;;17.50;81.42
6090;BME280;3073;42.660;23.316;2023-04-01T14:51:48;93062.22;;;17.18;100.00
6090;BME280;3073;42.660;23.316;2023-04-01T14:54:17;93055.28;;;17.10;100.00
6090;BME280;3073;42.660;23.316;2023-04-01T14:56:49;93063.00;;;17.10;100.00
6090;BME280;3073;42.660;23.316;2023-04-01T14:59:27;93054.09;;;16.52;100.00
6090;BME280;3073;42.660;23.316;2023-04-01T15:02:01;93071.84;;;16.45;100.00
6090;BME280;3073;42.660;23.316;2023-04-01T15:04:54;93061.94;;;17.40;100.00
6090;BME280;3073;42.660;23.316;2023-04-01T15:07:50;93081.19;;;17.13;100.00
6090;BME280;3073;42.660;23.316;2023-04-01T15:10:48;93078.31;;;17.35;100.00